Latest Weather Observations for Point Perpendicular

IDN60801

Issued at 6:02 pm EST Thursday 5 May 2016 (issued every 30 minutes, with the page automatically refreshed every 10 minutes)

About weather observations | Map of weather stations | Latest weather observations for NSW | Other Formats
Station Details ID: 068151 Name: POINT PERPENDICULAR AWS Lat: -35.09 Lon: 150.80 Height: 85.0 m
Data from the previous 72 hours. | See also: Recent months at Point Perpendicular
Date/Time
EST
Temp
°C
App
Temp
°C
Dew
Point
Rel
Hum
%
Delta-T
°C
Wind Press
QNH
hPa
Press
MSL
hPa
Rain
since 9 am
mm
Dir
 
Spd
km/h
Gust
km/h
Spd
kts
Gust
kts
05/06:00pm 16.8 - 12.7 77 2.3 - - - - - 1016.9 1016.8 0.0
05/05:30pm 16.8 - 11.5 71 2.9 - - - - - 1016.7 1016.6 0.0
05/05:00pm 17.3 - 11.1 67 3.4 - - - - - 1016.5 1016.4 0.0
05/04:30pm 17.9 - 10.5 62 4.0 - - - - - 1016.6 1016.5 0.0
05/04:00pm 18.7 - 10.0 57 4.6 - - - - - 1016.7 1016.6 0.0
05/03:30pm 18.7 - 9.2 54 5.0 - - - - - 1016.5 1016.4 0.0
05/03:00pm 18.8 - 8.2 50 5.5 - - - - - 1016.6 1016.5 0.0
05/02:30pm 18.9 - 8.6 51 5.4 - - - - - 1016.7 1016.6 0.0
05/02:00pm 18.2 - 8.2 52 5.1 - - - - - 1016.9 1016.8 0.0
05/01:30pm 18.6 - 8.3 51 5.3 - - - - - 1017.1 1017.0 0.0
05/01:00pm 18.7 - 8.7 52 5.2 - - - - - 1017.2 1017.1 0.0
05/12:30pm 18.3 - 7.4 49 5.5 - - - - - 1017.9 1017.8 0.0
05/12:00pm 17.6 - 7.4 51 5.1 - - - - - 1018.4 1018.3 0.0
05/11:30am 17.5 - 7.0 50 5.3 - - - - - 1018.9 1018.8 0.0
05/11:00am 17.7 - 8.8 56 4.6 - - - - - 1019.4 1019.3 0.0
05/10:30am 17.5 - 8.4 55 4.7 - - - - - 1019.7 1019.6 0.0
05/10:00am 17.2 - 8.6 57 4.4 - - - - - 1020.0 1019.9 0.0
05/09:30am 16.8 - 8.8 59 4.1 - - - - - 1020.0 1019.9 0.0
05/09:00am 15.9 - 8.4 61 3.8 - - - - - 1019.8 1019.7 0.0
05/08:30am 15.1 - 7.9 62 3.6 - - - - - 1019.8 1019.7 0.0
05/08:00am 14.4 - 7.5 63 3.4 - - - - - 1019.6 1019.5 0.0
05/07:30am 13.7 - 7.2 65 3.2 - - - - - 1019.5 1019.4 0.0
05/07:00am 12.9 - 6.9 67 2.9 - - - - - 1019.1 1019.0 0.0
05/06:30am 13.0 - 6.8 66 3.0 - - - - - 1018.7 1018.6 0.0
05/06:00am 13.3 - 6.6 64 3.2 - - - - - 1018.4 1018.3 0.0
05/05:30am 13.5 - 6.4 62 3.4 - - - - - 1018.1 1018.0 0.0
05/05:00am 13.8 - 6.7 62 3.4 - - - - - 1017.9 1017.8 0.0
05/04:30am 14.1 - 6.7 61 3.6 - - - - - 1018.1 1018.0 0.0
05/04:00am 14.3 - 6.9 61 3.6 - - - - - 1018.0 1017.9 0.0
05/03:30am 13.8 - 7.8 67 3.0 - - - - - 1017.9 1017.8 0.0
05/03:00am 14.1 - 7.4 64 3.3 - - - - - 1017.9 1017.8 0.0
05/02:30am 14.1 - 7.6 65 3.2 - - - - - 1018.3 1018.2 0.0
05/02:00am 15.1 - 7.2 59 3.9 - - - - - 1018.4 1018.3 0.0
05/01:30am 15.7 - 7.7 59 4.0 - - - - - 1018.6 1018.5 0.0
05/01:00am 15.4 - 8.9 65 3.3 - - - - - 1018.7 1018.6 0.0
05/12:30am 15.5 - 9.0 65 3.3 - - - - - 1018.9 1018.8 0.0
05/12:00am 15.8 - 10.8 72 2.7 - - - - - 1018.9 1018.8 0.0
 
Date/Time
EST
Temp
°C
App
Temp
°C
Dew
Point
Rel
Hum
%
Delta-T
°C
Wind Press
QNH
hPa
Press
MSL
hPa
Rain
since 9 am
mm
Dir
 
Spd
km/h
Gust
km/h
Spd
kts
Gust
kts
04/11:30pm 16.3 - 14.8 91 0.9 - - - - - 1019.0 1018.9 0.0
04/11:00pm 16.4 - 14.9 91 0.9 - - - - - 1018.9 1018.8 0.0
04/10:30pm 16.9 - 15.6 92 0.8 - - - - - 1019.0 1018.9 0.0
04/10:00pm 17.0 - 15.9 93 0.6 - - - - - 1019.0 1018.9 0.0
04/09:30pm 17.2 - 15.5 90 1.0 - - - - - 1019.1 1019.0 0.0
04/09:00pm 17.4 - 15.7 90 1.0 - - - - - 1019.1 1019.0 0.0
04/08:30pm 17.2 - 14.3 83 1.7 - - - - - 1018.8 1018.7 0.0
04/08:00pm 17.6 - 14.5 82 1.8 - - - - - 1018.5 1018.4 0.0
04/07:30pm 17.9 - 14.4 80 2.0 - - - - - 1018.2 1018.1 0.0
04/07:00pm 17.8 - 14.1 79 2.1 - - - - - 1018.0 1017.9 0.0
04/06:30pm 18.1 - 14.2 78 2.2 - - - - - 1017.6 1017.5 0.0
04/06:00pm 17.9 - 14.0 78 2.2 - - - - - 1017.1 1017.0 0.0
04/05:30pm 17.7 - 14.0 79 2.1 - - - - - 1016.6 1016.5 0.0
04/05:00pm 17.5 - 14.2 81 1.9 - - - - - 1016.2 1016.1 0.0
04/04:30pm 17.6 - 14.7 83 1.7 - - - - - 1016.0 1015.9 0.0
04/04:00pm 17.6 - 15.2 86 1.4 - - - - - 1015.8 1015.7 0.0
04/03:30pm 17.9 - 14.8 82 1.8 - - - - - 1015.6 1015.5 0.0
04/03:00pm 18.3 - 15.2 82 1.8 - - - - - 1015.2 1015.1 0.0
04/02:30pm 18.8 - 15.1 79 2.2 - - - - - 1014.9 1014.8 0.0
04/02:00pm 18.6 - 14.7 78 2.3 - - - - - 1014.6 1014.5 0.0
04/01:30pm 19.0 - 14.9 77 2.4 - - - - - 1014.5 1014.4 0.0
04/01:00pm 18.9 - 15.0 78 2.3 - - - - - 1014.3 1014.2 0.0
04/12:30pm 19.0 - 15.1 78 2.3 - - - - - 1014.5 1014.4 0.0
04/12:00pm 18.9 - 14.8 77 2.4 - - - - - 1014.8 1014.7 0.0
04/11:30am 18.6 - 14.9 79 2.2 - - - - - 1014.7 1014.6 0.0
04/11:00am 18.6 - 15.1 80 2.1 - - - - - 1014.8 1014.7 0.0
04/10:30am 18.7 - 15.4 81 1.9 - - - - - 1014.5 1014.4 0.0
04/10:00am 18.7 - 15.0 79 2.2 - - - - - 1014.2 1014.1 0.0
04/09:30am 18.3 - 14.4 78 2.3 - - - - - 1014.1 1014.0 0.0
04/09:00am 18.1 - 10.5 61 4.1 - - - - - 1014.0 1013.9 0.0
04/08:30am 18.0 - 9.6 58 4.4 - - - - - 1013.9 1013.8 0.0
04/08:00am 17.4 - 9.1 58 4.3 - - - - - 1013.5 1013.4 0.0
04/07:30am 16.7 - 8.4 58 4.2 - - - - - 1012.6 1012.5 0.0
04/07:00am 17.0 - 7.9 55 4.6 - - - - - 1012.2 1012.1 0.0
04/06:30am 17.0 - 7.1 52 4.9 - - - - - 1011.8 1011.7 0.0
04/06:00am 17.0 - 6.5 50 5.2 - - - - - 1011.7 1011.6 0.0
04/05:30am 16.3 - 8.0 58 4.2 - - - - - 1011.5 1011.4 0.0
04/05:00am 16.9 - 7.5 54 4.7 - - - - - 1011.3 1011.1 0.0
04/04:30am 16.8 - 8.2 57 4.4 - - - - - 1010.9 1010.8 0.0
04/04:00am 17.3 - 8.2 55 4.7 - - - - - 1010.5 1010.4 0.0
04/03:30am 17.1 - 6.3 49 5.3 - - - - - 1010.3 1010.2 0.0
04/03:00am 15.9 - 6.3 53 4.7 - - - - - 1010.0 1009.9 0.0
04/02:30am 16.7 - 6.2 50 5.1 - - - - - 1009.8 1009.7 0.0
04/02:00am 17.7 - 6.3 47 5.6 - - - - - 1009.7 1009.6 0.0
04/01:30am 16.5 - 6.3 51 5.0 - - - - - 1009.7 1009.6 0.0
04/01:00am 16.4 - 6.5 52 4.9 - - - - - 1009.6 1009.5 0.0
04/12:30am 16.9 - 7.3 53 4.8 - - - - - 1009.5 1009.4 0.0
04/12:00am 15.9 - 7.4 57 4.2 - - - - - 1009.6 1009.5 0.0
 
Date/Time
EST
Temp
°C
App
Temp
°C
Dew
Point
Rel
Hum
%
Delta-T
°C
Wind Press
QNH
hPa
Press
MSL
hPa
Rain
since 9 am
mm
Dir
 
Spd
km/h
Gust
km/h
Spd
kts
Gust
kts
03/11:30pm 15.7 - 7.5 58 4.1 - - - - - 1009.6 1009.5 0.0
03/11:00pm 15.9 - 7.4 57 4.2 - - - - - 1009.5 1009.4 0.0
03/10:30pm 18.7 - 8.4 51 5.3 - - - - - 1009.4 1009.3 0.0
03/10:00pm 18.3 - 7.7 50 5.4 - - - - - 1009.3 1009.2 0.0
03/09:30pm 18.0 - 8.0 52 5.1 - - - - - 1009.1 1009.0 0.0
03/09:00pm 18.4 - 7.5 49 5.6 - - - - - 1008.7 1008.6 0.0
03/08:30pm 18.8 - 7.3 47 5.8 - - - - - 1007.8 1007.7 0.0
03/08:00pm 18.7 - 7.8 49 5.6 - - - - - 1007.5 1007.4 0.0
03/07:30pm 18.8 - 7.9 49 5.6 - - - - - 1007.0 1006.9 0.0
03/07:00pm 18.7 - 7.8 49 5.6 - - - - - 1006.5 1006.4 0.0
03/06:30pm 19.4 - 7.2 45 6.2 - - - - - 1006.5 1006.4 0.0
03/06:00pm 19.6 - 7.4 45 6.3 - - - - - 1006.2 1006.1 0.0
03/05:30pm 20.1 - 8.4 47 6.1 - - - - - 1005.9 1005.8 0.0
03/05:00pm 20.8 - 7.8 43 6.8 - - - - - 1005.6 1005.5 0.0
03/04:30pm 21.6 - 7.1 39 7.5 - - - - - 1005.2 1005.1 0.0
03/04:00pm 22.0 - 9.2 44 6.9 - - - - - 1005.1 1005.0 0.0
03/03:30pm 22.4 - 7.8 39 7.7 - - - - - 1004.7 1004.6 0.0
03/03:00pm 22.7 - 8.4 40 7.6 - - - - - 1004.9 1004.8 0.0
03/02:30pm 22.5 - 7.5 38 7.8 - - - - - 1005.0 1004.9 0.0
03/02:00pm 22.1 - 6.7 37 7.9 - - - - - 1005.1 1005.0 0.0
03/01:30pm 22.0 - 7.0 38 7.7 - - - - - 1005.5 1005.4 0.0
03/01:00pm 21.9 - 7.3 39 7.6 - - - - - 1006.1 1006.0 0.0
03/12:30pm 21.7 - 7.5 40 7.4 - - - - - 1006.6 1006.5 0.0
03/12:00pm 21.4 - 7.6 41 7.2 - - - - - 1007.2 1007.1 0.0
03/11:30am 20.9 - 6.8 40 7.2 - - - - - 1007.7 1007.6 0.0
03/11:00am 20.3 - 7.7 44 6.5 - - - - - 1008.3 1008.2 0.0
03/10:30am 19.3 - 8.0 48 5.8 - - - - - 1009.0 1008.9 0.0
03/10:00am 18.8 - 7.9 49 5.6 - - - - - 1009.4 1009.3 0.0
03/09:30am 18.2 - 7.6 50 5.4 - - - - - 1010.0 1009.9 0.0
03/09:00am 17.5 - 7.3 51 5.1 - - - - - 1010.2 1010.1 0.0
03/08:30am 16.6 - 6.7 52 4.9 - - - - - 1010.4 1010.3 0.0
03/08:00am 15.9 - 7.9 59 4.0 - - - - - 1010.7 1010.6 0.0
03/07:30am 15.1 - 7.2 59 3.9 - - - - - 1010.7 1010.6 0.0
03/07:00am 14.3 - 7.4 63 3.4 - - - - - 1010.6 1010.5 0.0
03/06:30am 14.0 - 6.8 62 3.5 - - - - - 1010.6 1010.5 0.0
03/06:00am 14.0 - 6.1 59 3.8 - - - - - 1010.4 1010.3 0.0
03/05:30am 12.9 - 5.8 62 3.4 - - - - - 1010.4 1010.3 0.0
03/05:00am 11.5 - 5.4 66 2.8 - - - - - 1010.1 1010.0 0.0
03/04:30am 13.1 - 6.5 64 3.2 - - - - - 1010.0 1009.9 0.0
03/04:00am 13.3 - 6.6 64 3.2 - - - - - 1010.2 1010.1 0.0
03/03:30am 13.7 - 7.0 64 3.3 - - - - - 1010.1 1010.0 0.0
03/03:00am 13.5 - 6.8 64 3.3 - - - - - 1010.4 1010.3 0.0
03/02:30am 13.7 - 6.3 61 3.6 - - - - - 1010.8 1010.7 0.0
03/02:00am 13.9 - 6.3 60 3.7 - - - - - 1011.2 1011.0 0.0
03/01:30am 14.0 - 6.4 60 3.7 - - - - - 1011.7 1011.6 0.0
03/01:00am 13.9 - 6.5 61 3.6 - - - - - 1012.2 1012.1 0.0
03/12:30am 14.0 - 6.1 59 3.8 - - - - - 1012.8 1012.7 0.0
03/12:00am 14.2 - 6.1 58 3.9 - - - - - 1013.2 1013.1 0.0
 
Date/Time
EST
Temp
°C
App
Temp
°C
Dew
Point
Rel
Hum
%
Delta-T
°C
Wind Press
QNH
hPa
Press
MSL
hPa
Rain
since 9 am
mm
Dir
 
Spd
km/h
Gust
km/h
Spd
kts
Gust
kts
02/11:30pm 14.4 - 6.5 59 3.8 - - - - - 1013.6 1013.5 0.0
02/11:00pm 14.6 - 6.2 57 4.1 - - - - - 1013.6 1013.5 0.0
02/10:30pm 14.4 - 6.5 59 3.8 - - - - - 1013.5 1013.4 0.0
02/10:00pm 16.2 - 6.3 52 4.8 - - - - - 1013.6 1013.5 0.0
02/09:30pm 16.1 - 5.7 50 5.0 - - - - - 1013.9 1013.8 0.0
02/09:00pm 16.4 - 5.4 48 5.3 - - - - - 1014.0 1013.9 0.0
02/08:30pm 16.9 - 6.1 49 5.3 - - - - - 1013.8 1013.7 0.0
02/08:00pm 17.0 - 5.9 48 5.4 - - - - - 1013.4 1013.3 0.0
02/07:30pm 17.5 - 6.7 49 5.4 - - - - - 1013.6 1013.5 0.0
02/07:00pm 17.8 - 6.3 47 5.7 - - - - - 1012.7 1012.6 0.0
02/06:30pm 18.1 - 7.8 51 5.3 - - - - - 1012.7 1012.6 0.0

Other Formats:

Comma delimited format used in spreadsheet applications
http://www.bom.gov.au/fwo/IDN60801/IDN60801.95940.axf

JavaScript Object Notation format (JSON) in row-major order
http://www.bom.gov.au/fwo/IDN60801/IDN60801.95940.json